createdAt,value
2022-08-30T00:01:34.514Z,17.90
2022-08-30T00:04:07.331Z,17.80
2022-08-30T00:06:35.389Z,17.90
2022-08-30T00:09:03.570Z,17.80
2022-08-30T00:11:31.461Z,17.80
2022-08-30T00:13:59.854Z,17.80
2022-08-30T00:16:27.797Z,17.80
2022-08-30T00:18:56.107Z,17.80
2022-08-30T00:21:27.009Z,17.80
2022-08-30T00:23:55.628Z,17.70
2022-08-30T00:26:23.412Z,17.70
2022-08-30T00:28:51.653Z,17.70
2022-08-30T00:31:19.519Z,17.70
2022-08-30T00:33:47.401Z,17.60
2022-08-30T00:36:15.967Z,17.60
2022-08-30T00:38:45.214Z,17.60
2022-08-30T00:41:13.061Z,17.50
2022-08-30T00:43:42.024Z,17.50
2022-08-30T00:46:10.340Z,17.50
2022-08-30T00:48:42.530Z,17.40
2022-08-30T00:51:13.597Z,17.40
2022-08-30T00:53:45.586Z,17.40
2022-08-30T00:56:14.308Z,17.40
2022-08-30T00:58:46.180Z,17.50
2022-08-30T01:01:14.774Z,17.50
2022-08-30T01:03:44.311Z,17.40
2022-08-30T01:06:13.926Z,17.40
2022-08-30T01:08:41.815Z,17.40
2022-08-30T01:11:12.264Z,17.30
2022-08-30T01:13:40.664Z,17.20
2022-08-30T01:16:08.743Z,17.20
2022-08-30T01:18:39.692Z,17.20
2022-08-30T01:21:16.901Z,17.30
2022-08-30T01:23:50.186Z,17.30
2022-08-30T01:26:21.865Z,17.20
2022-08-30T01:28:54.638Z,17.20
2022-08-30T01:31:22.670Z,17.30
2022-08-30T01:33:50.946Z,17.30
2022-08-30T01:36:20.218Z,17.20
2022-08-30T01:38:51.926Z,17.20
2022-08-30T01:41:23.160Z,17.20
2022-08-30T01:43:52.261Z,17.00
2022-08-30T01:46:23.418Z,16.90
2022-08-30T01:48:54.228Z,16.80
2022-08-30T01:51:23.846Z,16.80
2022-08-30T01:53:53.568Z,16.80
2022-08-30T01:56:21.909Z,16.90
2022-08-30T01:58:50.183Z,16.90
2022-08-30T02:01:20.321Z,17.00
2022-08-30T02:03:48.785Z,17.00
2022-08-30T02:06:18.578Z,17.00
2022-08-30T02:08:47.673Z,17.00
2022-08-30T02:11:17.714Z,17.00
2022-08-30T02:13:47.350Z,17.10
2022-08-30T02:16:18.929Z,17.10
2022-08-30T02:18:47.045Z,17.10
2022-08-30T02:21:15.530Z,17.00
2022-08-30T02:23:43.937Z,17.00
2022-08-30T02:26:13.283Z,16.80
2022-08-30T02:28:50.356Z,16.80
2022-08-30T02:31:21.006Z,16.80
2022-08-30T02:33:50.042Z,16.80
2022-08-30T02:36:18.153Z,16.80
2022-08-30T02:38:46.221Z,16.80
2022-08-30T02:41:14.234Z,16.80
2022-08-30T02:43:43.473Z,16.70
2022-08-30T02:46:11.654Z,16.80
2022-08-30T02:48:39.642Z,16.80
2022-08-30T02:51:11.160Z,16.80
2022-08-30T02:53:40.132Z,16.80
2022-08-30T02:56:08.911Z,16.80
2022-08-30T02:58:37.272Z,16.80
2022-08-30T03:01:06.958Z,16.80
2022-08-30T03:03:35.014Z,16.80
2022-08-30T03:06:03.392Z,16.90
2022-08-30T03:08:31.909Z,16.90
2022-08-30T03:10:59.942Z,16.80
2022-08-30T03:13:28.095Z,16.90
2022-08-30T03:15:56.003Z,17.00
2022-08-30T03:18:26.498Z,16.90
2022-08-30T03:20:55.098Z,17.00
2022-08-30T03:23:23.914Z,17.00
2022-08-30T03:25:52.006Z,17.00
2022-08-30T03:28:19.809Z,16.90
2022-08-30T03:30:48.034Z,17.00
2022-08-30T03:33:16.073Z,17.00
2022-08-30T03:35:48.054Z,17.00
2022-08-30T03:38:15.877Z,17.00
2022-08-30T03:40:44.597Z,17.00
2022-08-30T03:43:12.805Z,17.00
2022-08-30T03:45:41.267Z,17.00
2022-08-30T03:48:09.175Z,17.00
2022-08-30T03:50:37.162Z,16.90
2022-08-30T03:53:06.444Z,17.00
2022-08-30T03:55:34.348Z,16.90
2022-08-30T03:58:02.151Z,16.90
2022-08-30T04:00:30.199Z,16.70
2022-08-30T04:02:58.014Z,16.70
2022-08-30T04:05:26.814Z,16.70
2022-08-30T04:07:54.785Z,16.80
2022-08-30T04:10:24.473Z,16.80
2022-08-30T04:12:52.285Z,16.80
2022-08-30T04:15:21.111Z,16.70
2022-08-30T04:17:49.391Z,16.70
2022-08-30T04:20:17.517Z,16.80
2022-08-30T04:22:45.559Z,16.80
2022-08-30T04:25:15.837Z,16.80
2022-08-30T04:27:46.156Z,16.90
2022-08-30T04:30:15.606Z,16.90
2022-08-30T04:32:43.569Z,16.80
2022-08-30T04:35:12.607Z,16.90
2022-08-30T04:37:41.010Z,16.80
2022-08-30T04:40:10.713Z,16.80
2022-08-30T04:42:38.968Z,16.90
2022-08-30T04:45:11.520Z,17.00
2022-08-30T04:47:39.814Z,17.00
2022-08-30T04:50:09.837Z,17.10
2022-08-30T04:52:38.322Z,17.10
2022-08-30T04:55:08.744Z,17.00
2022-08-30T04:57:36.566Z,17.00
2022-08-30T05:00:08.418Z,17.00
2022-08-30T05:02:37.790Z,17.10
2022-08-30T05:05:24.577Z,17.00
2022-08-30T05:07:52.397Z,16.90
2022-08-30T05:10:20.338Z,17.00
2022-08-30T05:12:48.211Z,17.00
2022-08-30T05:15:16.289Z,17.00
2022-08-30T05:17:45.685Z,17.10
2022-08-30T05:20:14.273Z,17.00
2022-08-30T05:22:49.901Z,16.90
2022-08-30T05:25:23.424Z,16.80
2022-08-30T05:27:51.636Z,16.90
2022-08-30T05:30:20.187Z,16.90
2022-08-30T05:32:49.375Z,17.00
2022-08-30T05:35:23.484Z,17.00
2022-08-30T05:37:53.664Z,17.00
2022-08-30T05:40:22.737Z,16.90
2022-08-30T05:42:50.620Z,16.90
2022-08-30T05:45:18.904Z,16.90
2022-08-30T05:47:47.749Z,17.00
2022-08-30T05:50:17.169Z,17.00
2022-08-30T05:52:45.583Z,17.10
2022-08-30T05:55:13.696Z,17.10
2022-08-30T05:57:42.061Z,17.10
2022-08-30T06:00:13.558Z,17.20
2022-08-30T06:02:41.768Z,17.30
2022-08-30T06:05:10.804Z,17.20
2022-08-30T06:07:43.684Z,17.20
2022-08-30T06:10:12.267Z,17.20
2022-08-30T06:12:40.063Z,17.20
2022-08-30T06:15:09.120Z,17.30
2022-08-30T06:17:39.464Z,17.30
2022-08-30T06:20:08.973Z,17.40
2022-08-30T06:22:38.562Z,17.50
2022-08-30T06:25:09.142Z,17.50
2022-08-30T06:27:37.238Z,17.50
2022-08-30T06:30:08.158Z,17.60
2022-08-30T06:32:36.161Z,17.70
2022-08-30T06:35:04.814Z,17.70
2022-08-30T06:37:33.703Z,17.70
2022-08-30T06:40:02.846Z,17.70
2022-08-30T06:42:34.458Z,17.80
2022-08-30T06:45:03.388Z,17.90
2022-08-30T06:47:39.670Z,17.90
2022-08-30T06:50:08.792Z,18.00
2022-08-30T06:52:40.450Z,18.00
2022-08-30T06:55:09.190Z,18.00
2022-08-30T06:57:38.497Z,18.10
2022-08-30T07:00:09.024Z,18.20
2022-08-30T07:02:38.925Z,18.30
2022-08-30T07:05:08.856Z,18.40
2022-08-30T07:07:36.989Z,18.50
2022-08-30T07:10:06.158Z,18.60
2022-08-30T07:12:33.984Z,18.70
2022-08-30T07:15:05.795Z,18.70
2022-08-30T07:17:52.139Z,18.70
2022-08-30T07:20:21.425Z,18.70
2022-08-30T07:22:49.418Z,18.70
2022-08-30T07:25:17.598Z,18.70
2022-08-30T07:27:47.969Z,18.80
2022-08-30T07:30:17.243Z,18.90
2022-08-30T07:32:45.237Z,19.00
2022-08-30T07:35:13.157Z,19.10
2022-08-30T07:37:41.240Z,19.00
2022-08-30T07:40:10.623Z,19.00
2022-08-30T07:42:38.615Z,19.00
2022-08-30T07:45:07.271Z,19.10
2022-08-30T07:47:36.957Z,19.20
2022-08-30T07:50:07.725Z,19.30
2022-08-30T07:55:05.114Z,19.30
2022-08-30T07:57:34.535Z,19.40
2022-08-30T08:00:02.814Z,19.40
2022-08-30T08:02:41.850Z,19.60
2022-08-30T08:05:15.158Z,19.70
2022-08-30T08:07:45.225Z,19.70
2022-08-30T08:10:13.400Z,19.60
2022-08-30T08:12:41.647Z,19.50
2022-08-30T08:15:10.398Z,19.50
2022-08-30T08:17:39.793Z,19.50
2022-08-30T08:20:08.683Z,19.60
2022-08-30T08:22:39.851Z,19.60
2022-08-30T08:25:09.179Z,19.70
2022-08-30T08:27:37.211Z,19.90
2022-08-30T08:30:06.023Z,19.90
2022-08-30T08:32:34.273Z,20.00
2022-08-30T08:35:03.636Z,20.00
2022-08-30T08:37:31.699Z,20.10
2022-08-30T08:39:59.574Z,20.00
2022-08-30T08:42:36.611Z,20.00
2022-08-30T08:45:11.388Z,19.90
2022-08-30T08:47:42.316Z,20.00
2022-08-30T08:50:18.547Z,20.00
2022-08-30T08:53:20.548Z,20.10
2022-08-30T08:55:59.261Z,20.10
2022-08-30T08:58:29.465Z,20.10
2022-08-30T09:00:59.044Z,20.10
2022-08-30T09:03:29.139Z,20.30
2022-08-30T09:05:59.083Z,20.40
2022-08-30T09:08:27.309Z,20.40
2022-08-30T09:10:58.351Z,20.50
2022-08-30T09:13:27.252Z,20.60
2022-08-30T09:15:57.547Z,20.70
2022-08-30T09:18:42.813Z,20.90
2022-08-30T09:21:21.395Z,21.10
2022-08-30T09:23:52.077Z,21.30
2022-08-30T09:26:31.429Z,21.50
2022-08-30T09:29:01.043Z,21.40
2022-08-30T09:31:30.998Z,21.40
2022-08-30T09:34:03.748Z,21.30
2022-08-30T09:36:36.399Z,21.40
2022-08-30T09:39:07.779Z,21.40
2022-08-30T09:41:40.053Z,21.40
2022-08-30T09:44:12.449Z,21.50
2022-08-30T09:46:50.865Z,21.20
2022-08-30T09:49:36.809Z,21.10
2022-08-30T09:52:30.067Z,20.90
2022-08-30T09:55:19.087Z,20.90
2022-08-30T09:57:57.938Z,20.70
2022-08-30T10:00:29.000Z,20.60
2022-08-30T10:03:35.836Z,20.50
2022-08-30T10:06:19.504Z,20.30
2022-08-30T10:09:03.315Z,20.20
2022-08-30T10:11:40.484Z,20.30
2022-08-30T10:14:42.048Z,20.20
2022-08-30T10:17:15.798Z,20.30
2022-08-30T10:19:57.579Z,20.20
2022-08-30T10:22:31.423Z,20.10
2022-08-30T10:25:07.978Z,20.00
2022-08-30T10:27:41.271Z,19.90
2022-08-30T10:30:13.824Z,19.80
2022-08-30T10:32:48.982Z,19.80
2022-08-30T10:35:19.867Z,19.70
2022-08-30T10:37:51.874Z,19.60
2022-08-30T10:40:45.385Z,19.40
2022-08-30T10:43:25.813Z,19.30
2022-08-30T10:45:58.179Z,19.20
2022-08-30T10:48:31.942Z,19.20
2022-08-30T10:51:08.110Z,19.10
2022-08-30T10:53:44.263Z,19.20
2022-08-30T10:56:18.579Z,19.20
2022-08-30T10:58:46.622Z,19.30
2022-08-30T11:01:36.120Z,19.30
2022-08-30T11:04:23.566Z,19.30
2022-08-30T11:07:02.970Z,19.30
2022-08-30T11:10:02.311Z,19.30
2022-08-30T11:12:37.026Z,19.40
2022-08-30T11:15:21.456Z,19.40
2022-08-30T11:17:58.807Z,19.60
2022-08-30T11:20:35.039Z,19.60
2022-08-30T11:23:29.084Z,19.80
2022-08-30T11:26:03.137Z,20.10
2022-08-30T11:29:08.008Z,20.20
2022-08-30T11:31:44.661Z,20.40
2022-08-30T11:34:53.126Z,20.50
2022-08-30T11:37:40.418Z,20.60
2022-08-30T11:40:27.419Z,20.60
2022-08-30T11:42:56.661Z,20.80
2022-08-30T11:45:45.766Z,20.80
2022-08-30T11:48:46.961Z,20.80
2022-08-30T11:52:14.841Z,20.90
2022-08-30T11:54:55.419Z,21.10
2022-08-30T11:57:32.109Z,21.20
2022-08-30T12:00:08.173Z,21.30
2022-08-30T12:02:52.176Z,21.50
2022-08-30T12:05:51.348Z,21.80
2022-08-30T12:08:56.533Z,22.00
2022-08-30T12:11:55.738Z,21.90
2022-08-30T12:14:47.448Z,21.60
2022-08-30T12:17:50.614Z,21.10
2022-08-30T12:20:25.845Z,21.00
2022-08-30T12:22:55.320Z,21.30
2022-08-30T12:25:30.167Z,21.50
2022-08-30T12:28:17.741Z,21.70
2022-08-30T12:30:46.706Z,21.70
2022-08-30T12:33:29.532Z,21.60
2022-08-30T12:36:01.272Z,21.60
2022-08-30T12:38:30.769Z,21.50
2022-08-30T12:41:03.000Z,21.70
2022-08-30T12:43:40.685Z,21.70
2022-08-30T12:46:15.402Z,21.60
2022-08-30T12:48:45.198Z,21.70
2022-08-30T12:51:29.965Z,21.80
2022-08-30T12:54:07.015Z,21.80
2022-08-30T12:56:57.193Z,21.70
2022-08-30T12:59:55.511Z,21.50
2022-08-30T13:02:28.844Z,21.60
2022-08-30T13:04:57.434Z,21.60
2022-08-30T13:07:33.168Z,21.70
2022-08-30T13:10:11.947Z,21.70
2022-08-30T13:12:40.493Z,21.70
2022-08-30T13:15:28.109Z,21.60
2022-08-30T13:18:18.835Z,21.60
2022-08-30T13:21:10.790Z,21.50
2022-08-30T13:23:40.120Z,21.50
2022-08-30T13:26:08.754Z,21.50
2022-08-30T13:28:51.121Z,21.60
2022-08-30T13:31:19.321Z,21.60
2022-08-30T13:33:47.509Z,21.60
2022-08-30T13:36:16.214Z,21.50
2022-08-30T13:38:45.585Z,21.60
2022-08-30T13:41:13.530Z,21.70
2022-08-30T13:46:29.695Z,21.70
2022-08-30T13:49:03.162Z,21.60
2022-08-30T13:51:31.317Z,21.60
2022-08-30T13:54:01.008Z,21.70
2022-08-30T13:56:31.652Z,21.70
2022-08-30T13:59:00.025Z,21.70
2022-08-30T14:01:31.618Z,21.70
2022-08-30T14:04:19.378Z,21.80
2022-08-30T14:09:37.098Z,21.90
2022-08-30T14:12:05.686Z,21.70
2022-08-30T14:14:42.867Z,21.70
2022-08-30T14:17:12.479Z,21.70
2022-08-30T14:19:40.723Z,21.70
2022-08-30T14:22:08.626Z,21.60
2022-08-30T14:24:38.185Z,21.30
2022-08-30T14:27:06.992Z,21.20
2022-08-30T14:29:36.039Z,21.30
2022-08-30T14:32:05.892Z,21.40
2022-08-30T14:34:33.789Z,21.50
2022-08-30T14:37:01.624Z,21.70
2022-08-30T14:39:30.040Z,21.70
2022-08-30T14:42:04.324Z,21.70
2022-08-30T14:44:55.086Z,21.60
2022-08-30T14:47:28.640Z,21.60
2022-08-30T14:50:00.800Z,21.50
2022-08-30T14:52:29.277Z,21.40
2022-08-30T14:55:05.209Z,21.40
2022-08-30T14:57:39.339Z,21.50
2022-08-30T15:00:10.189Z,21.50
2022-08-30T15:02:38.156Z,21.50
2022-08-30T15:05:08.522Z,21.40
2022-08-30T15:07:36.669Z,21.40
2022-08-30T15:10:06.575Z,21.30
2022-08-30T15:12:34.775Z,21.20
2022-08-30T15:15:04.372Z,21.00
2022-08-30T15:17:33.897Z,20.90
2022-08-30T15:20:01.764Z,20.80
2022-08-30T15:22:29.753Z,20.90
2022-08-30T15:24:57.789Z,20.90
2022-08-30T15:27:26.235Z,20.80
2022-08-30T15:29:54.171Z,20.70
2022-08-30T15:32:23.464Z,20.80
2022-08-30T15:34:56.077Z,20.80
2022-08-30T15:37:24.352Z,20.80
2022-08-30T15:39:53.060Z,20.70
2022-08-30T15:42:21.407Z,20.70
2022-08-30T15:44:52.205Z,20.60
2022-08-30T15:47:21.787Z,20.50
2022-08-30T15:49:57.614Z,20.50
2022-08-30T15:52:26.818Z,20.50
2022-08-30T15:54:55.091Z,20.50
2022-08-30T15:57:23.144Z,20.50
2022-08-30T15:59:54.339Z,20.40
2022-08-30T16:02:27.650Z,20.30
2022-08-30T16:04:57.435Z,20.20
2022-08-30T16:07:25.354Z,20.20
2022-08-30T16:09:53.863Z,20.20
2022-08-30T16:12:23.710Z,20.20
2022-08-30T16:14:51.964Z,20.20
2022-08-30T16:17:19.913Z,20.20
2022-08-30T16:19:48.024Z,20.10
2022-08-30T16:22:22.027Z,20.10
2022-08-30T16:24:50.454Z,20.10
2022-08-30T16:27:18.458Z,20.10
2022-08-30T16:29:50.172Z,20.10
2022-08-30T16:32:18.689Z,20.00
2022-08-30T16:34:47.361Z,20.00
2022-08-30T16:37:15.234Z,19.90
2022-08-30T16:39:46.675Z,19.90
2022-08-30T16:42:15.057Z,19.80
2022-08-30T16:44:49.845Z,19.80
2022-08-30T16:47:18.472Z,19.80
2022-08-30T16:49:46.423Z,19.80
2022-08-30T16:52:14.401Z,19.80
2022-08-30T16:54:43.982Z,19.70
2022-08-30T16:57:12.215Z,19.70
2022-08-30T16:59:40.112Z,19.70
2022-08-30T17:02:08.087Z,19.70
2022-08-30T17:04:39.952Z,19.60
2022-08-30T17:07:07.836Z,19.50
2022-08-30T17:09:41.939Z,19.40
2022-08-30T17:12:11.351Z,19.40
2022-08-30T17:14:39.339Z,19.30
2022-08-30T17:17:08.643Z,19.30
2022-08-30T17:19:41.263Z,19.20
2022-08-30T17:22:11.425Z,19.10
2022-08-30T17:24:39.585Z,19.10
2022-08-30T17:27:08.592Z,18.90
2022-08-30T17:29:37.818Z,18.80
2022-08-30T17:32:06.626Z,18.80
2022-08-30T17:34:34.734Z,19.00
2022-08-30T17:37:02.930Z,18.90
2022-08-30T17:39:31.923Z,18.80
2022-08-30T17:42:00.887Z,18.70
2022-08-30T17:44:29.629Z,18.70
2022-08-30T17:46:59.666Z,18.70
2022-08-30T17:49:28.983Z,18.70
2022-08-30T17:51:58.586Z,18.50
2022-08-30T17:54:27.237Z,18.50
2022-08-30T17:56:55.503Z,18.40
2022-08-30T17:59:25.168Z,18.30
2022-08-30T18:01:55.010Z,18.20
2022-08-30T18:04:24.981Z,18.10
2022-08-30T18:06:53.231Z,18.10
2022-08-30T18:09:21.989Z,18.00
2022-08-30T18:11:50.699Z,18.00
2022-08-30T18:14:19.485Z,18.00
2022-08-30T18:16:49.821Z,17.90
2022-08-30T18:19:23.901Z,17.90
2022-08-30T18:21:52.161Z,17.80
2022-08-30T18:24:20.220Z,17.80
2022-08-30T18:26:48.203Z,17.70
2022-08-30T18:29:29.064Z,17.60
2022-08-30T18:32:00.174Z,17.50
2022-08-30T18:34:30.193Z,17.40
2022-08-30T18:36:58.362Z,17.40
2022-08-30T18:39:26.301Z,17.40
2022-08-30T18:41:55.623Z,17.40
2022-08-30T18:44:43.623Z,17.30
2022-08-30T18:47:12.926Z,17.20
2022-08-30T18:49:42.213Z,17.10
2022-08-30T18:52:11.637Z,17.00
2022-08-30T18:54:42.205Z,16.90
2022-08-30T18:57:10.535Z,16.90
2022-08-30T18:59:39.026Z,16.80
2022-08-30T19:02:12.542Z,16.80
2022-08-30T19:04:43.329Z,16.70
2022-08-30T19:07:15.148Z,16.60
2022-08-30T19:09:45.274Z,16.60
2022-08-30T19:12:13.505Z,16.50
2022-08-30T19:14:42.163Z,16.40
2022-08-30T19:17:10.344Z,16.30
2022-08-30T19:22:39.877Z,16.20
2022-08-30T19:25:17.494Z,16.10
2022-08-30T19:27:45.742Z,16.00
2022-08-30T19:30:21.644Z,16.00
2022-08-30T19:32:53.409Z,15.80
2022-08-30T19:35:21.980Z,15.80
2022-08-30T19:37:51.355Z,15.60
2022-08-30T19:40:20.911Z,15.60
2022-08-30T19:42:49.501Z,15.50
2022-08-30T19:45:21.656Z,15.50
2022-08-30T19:47:50.105Z,15.40
2022-08-30T19:50:18.648Z,15.40
2022-08-30T19:52:53.320Z,15.30
2022-08-30T19:55:28.718Z,15.20
2022-08-30T19:57:58.645Z,15.20
2022-08-30T20:00:26.541Z,15.10
2022-08-30T20:02:54.528Z,15.10
2022-08-30T20:05:23.948Z,15.00
2022-08-30T20:07:52.042Z,15.00
2022-08-30T20:10:25.932Z,14.90
2022-08-30T20:12:55.803Z,14.80
2022-08-30T20:15:25.642Z,14.70
2022-08-30T20:18:05.824Z,14.60
2022-08-30T20:20:36.130Z,14.60
2022-08-30T20:23:05.081Z,14.50
2022-08-30T20:24:32.967Z,16.30
2022-08-30T20:25:33.339Z,14.50
2022-08-30T20:28:03.297Z,14.50
2022-08-30T20:30:31.345Z,14.40
2022-08-30T20:33:01.563Z,14.40
2022-08-30T20:35:31.904Z,14.40
2022-08-30T20:38:06.100Z,14.30
2022-08-30T20:40:36.031Z,14.30
2022-08-30T20:43:05.802Z,14.20
2022-08-30T20:45:34.571Z,14.10
2022-08-30T20:48:03.193Z,14.10
2022-08-30T20:50:31.127Z,14.00
2022-08-30T20:52:59.117Z,14.00
2022-08-30T20:55:27.039Z,13.90
2022-08-30T20:57:54.983Z,13.90
2022-08-30T21:00:24.898Z,13.90
2022-08-30T21:02:54.708Z,13.80
2022-08-30T21:05:22.802Z,13.80
2022-08-30T21:07:50.839Z,13.70
2022-08-30T21:10:23.249Z,13.70
2022-08-30T21:12:51.533Z,13.70
2022-08-30T21:15:37.597Z,13.60
2022-08-30T21:18:07.514Z,13.60
2022-08-30T21:20:35.997Z,13.50
2022-08-30T21:23:04.023Z,13.50
2022-08-30T21:25:33.943Z,13.50
2022-08-30T21:28:01.914Z,13.50
2022-08-30T21:30:29.822Z,13.50
2022-08-30T21:33:00.069Z,13.50
2022-08-30T21:35:47.406Z,13.50
2022-08-30T21:38:15.798Z,13.50
2022-08-30T21:40:44.147Z,13.40
2022-08-30T21:43:12.830Z,13.40
2022-08-30T21:45:42.078Z,13.30
2022-08-30T21:48:11.279Z,13.40
2022-08-30T21:50:41.355Z,13.30
2022-08-30T21:53:09.387Z,13.30
2022-08-30T21:55:37.325Z,13.20
2022-08-30T21:58:05.837Z,13.20
2022-08-30T22:00:33.861Z,13.10
2022-08-30T22:03:02.181Z,13.10
2022-08-30T22:05:30.103Z,13.10
2022-08-30T22:07:59.482Z,13.10
2022-08-30T22:10:32.435Z,13.10
2022-08-30T22:13:01.184Z,13.10
2022-08-30T22:15:29.051Z,13.00
2022-08-30T22:17:57.500Z,13.00
2022-08-30T22:20:25.431Z,13.00
2022-08-30T22:22:59.634Z,13.00
2022-08-30T22:25:27.655Z,13.00
2022-08-30T22:27:55.584Z,12.90
2022-08-30T22:30:23.601Z,12.90
2022-08-30T22:32:52.652Z,12.90
2022-08-30T22:35:21.388Z,12.90
2022-08-30T22:37:53.335Z,12.80
2022-08-30T22:40:23.568Z,12.80
2022-08-30T22:42:51.458Z,12.80
2022-08-30T22:45:19.567Z,12.70
2022-08-30T22:47:48.043Z,12.70
2022-08-30T22:50:16.144Z,12.80
2022-08-30T22:52:44.086Z,12.70
2022-08-30T22:55:12.205Z,12.70
2022-08-30T22:57:42.025Z,12.70
2022-08-30T23:00:15.192Z,12.70
2022-08-30T23:02:44.098Z,12.60
2022-08-30T23:05:12.842Z,12.60
2022-08-30T23:07:40.782Z,12.60
2022-08-30T23:10:10.217Z,12.60
2022-08-30T23:12:38.285Z,12.50
2022-08-30T23:15:10.887Z,12.50
2022-08-30T23:17:39.947Z,12.40
2022-08-30T23:20:09.454Z,12.40
2022-08-30T23:22:37.367Z,12.40
2022-08-30T23:25:25.321Z,12.40
2022-08-30T23:28:11.177Z,12.40
2022-08-30T23:31:01.866Z,12.30
2022-08-30T23:33:47.590Z,12.30
2022-08-30T23:36:33.503Z,12.20
2022-08-30T23:39:20.622Z,12.30
2022-08-30T23:42:05.924Z,12.20
2022-08-30T23:44:51.359Z,12.20
2022-08-30T23:47:37.894Z,12.10
2022-08-30T23:50:24.723Z,12.10
2022-08-30T23:53:10.127Z,12.10
2022-08-30T23:55:58.903Z,12.10
2022-08-30T23:58:44.213Z,12.10
